sensor_id;sensor_type;location;lat;lon;timestamp;P1;durP1;ratioP1;P2;durP2;ratioP2
53618;SDS011;68717;53.040;18.488;2024-02-23T00:00:06;17.70;;;9.60;;
53618;SDS011;68717;53.040;18.488;2024-02-23T00:00:21;17.75;;;9.93;;
53618;SDS011;68717;53.040;18.488;2024-02-23T00:00:54;18.70;;;9.93;;
53618;SDS011;68717;53.040;18.488;2024-02-23T00:01:27;19.67;;;10.35;;
53618;SDS011;68717;53.040;18.488;2024-02-23T00:01:40;19.33;;;10.23;;
53618;SDS011;68717;53.040;18.488;2024-02-23T00:01:54;17.95;;;10.00;;
53618;SDS011;68717;53.040;18.488;2024-02-23T00:02:07;17.67;;;10.13;;
53618;SDS011;68717;53.040;18.488;2024-02-23T00:02:21;18.38;;;10.05;;
53618;SDS011;68717;53.040;18.488;2024-02-23T00:02:34;18.00;;;10.02;;
53618;SDS011;68717;53.040;18.488;2024-02-23T00:02:47;17.73;;;10.32;;
53618;SDS011;68717;53.040;18.488;2024-02-23T00:03:00;17.95;;;10.15;;
53618;SDS011;68717;53.040;18.488;2024-02-23T00:03:14;19.27;;;10.02;;
53618;SDS011;68717;53.040;18.488;2024-02-23T00:03:29;19.50;;;10.10;;
53618;SDS011;68717;53.040;18.488;2024-02-23T00:03:43;18.48;;;10.00;;
53618;SDS011;68717;53.040;18.488;2024-02-23T00:03:56;19.52;;;10.07;;
53618;SDS011;68717;53.040;18.488;2024-02-23T00:04:11;18.95;;;10.00;;
53618;SDS011;68717;53.040;18.488;2024-02-23T00:04:25;19.80;;;10.20;;
53618;SDS011;68717;53.040;18.488;2024-02-23T00:04:38;20.98;;;10.48;;
53618;SDS011;68717;53.040;18.488;2024-02-23T00:04:52;18.52;;;10.35;;
53618;SDS011;68717;53.040;18.488;2024-02-23T00:05:05;19.05;;;10.60;;
53618;SDS011;68717;53.040;18.488;2024-02-23T00:05:18;18.73;;;10.68;;
53618;SDS011;68717;53.040;18.488;2024-02-23T00:05:32;18.00;;;10.55;;
53618;SDS011;68717;53.040;18.488;2024-02-23T00:05:45;18.77;;;10.45;;
53618;SDS011;68717;53.040;18.488;2024-02-23T00:05:58;19.45;;;10.10;;
53618;SDS011;68717;53.040;18.488;2024-02-23T00:06:11;21.23;;;10.45;;
53618;SDS011;68717;53.040;18.488;2024-02-23T00:06:25;21.40;;;10.88;;
53618;SDS011;68717;53.040;18.488;2024-02-23T00:06:41;20.25;;;10.60;;
53618;SDS011;68717;53.040;18.488;2024-02-23T00:06:54;19.80;;;9.75;;
53618;SDS011;68717;53.040;18.488;2024-02-23T00:07:07;19.42;;;9.50;;
53618;SDS011;68717;53.040;18.488;2024-02-23T00:07:20;18.35;;;9.73;;
53618;SDS011;68717;53.040;18.488;2024-02-23T00:07:33;18.88;;;10.35;;
53618;SDS011;68717;53.040;18.488;2024-02-23T00:07:46;18.35;;;10.32;;
53618;SDS011;68717;53.040;18.488;2024-02-23T00:07:59;18.40;;;10.05;;
53618;SDS011;68717;53.040;18.488;2024-02-23T00:08:13;20.20;;;10.00;;
53618;SDS011;68717;53.040;18.488;2024-02-23T00:08:26;20.70;;;10.18;;
53618;SDS011;68717;53.040;18.488;2024-02-23T00:08:40;18.80;;;10.55;;
53618;SDS011;68717;53.040;18.488;2024-02-23T00:08:54;17.67;;;10.13;;
53618;SDS011;68717;53.040;18.488;2024-02-23T00:09:10;18.23;;;10.20;;
53618;SDS011;68717;53.040;18.488;2024-02-23T00:09:23;19.30;;;10.45;;
53618;SDS011;68717;53.040;18.488;2024-02-23T00:09:37;19.27;;;10.18;;
53618;SDS011;68717;53.040;18.488;2024-02-23T00:09:50;18.83;;;10.40;;
53618;SDS011;68717;53.040;18.488;2024-02-23T00:10:04;17.95;;;10.30;;
53618;SDS011;68717;53.040;18.488;2024-02-23T00:10:18;19.33;;;10.18;;
53618;SDS011;68717;53.040;18.488;2024-02-23T00:10:31;19.75;;;10.05;;
53618;SDS011;68717;53.040;18.488;2024-02-23T00:10:45;18.95;;;10.13;;
53618;SDS011;68717;53.040;18.488;2024-02-23T00:10:58;18.77;;;10.10;;
53618;SDS011;68717;53.040;18.488;2024-02-23T00:11:14;19.13;;;10.30;;
53618;SDS011;68717;53.040;18.488;2024-02-23T00:11:28;20.52;;;10.95;;
53618;SDS011;68717;53.040;18.488;2024-02-23T00:11:41;21.38;;;10.98;;
53618;SDS011;68717;53.040;18.488;2024-02-23T00:11:57;19.52;;;10.23;;
53618;SDS011;68717;53.040;18.488;2024-02-23T00:12:10;18.35;;;9.52;;
53618;SDS011;68717;53.040;18.488;2024-02-23T00:12:24;17.67;;;9.43;;
53618;SDS011;68717;53.040;18.488;2024-02-23T00:12:38;17.73;;;9.82;;
53618;SDS011;68717;53.040;18.488;2024-02-23T00:12:51;18.63;;;10.10;;
53618;SDS011;68717;53.040;18.488;2024-02-23T00:13:04;18.58;;;10.00;;
53618;SDS011;68717;53.040;18.488;2024-02-23T00:13:18;18.08;;;9.88;;
53618;SDS011;68717;53.040;18.488;2024-02-23T00:13:31;19.60;;;9.85;;
53618;SDS011;68717;53.040;18.488;2024-02-23T00:13:44;20.10;;;10.15;;
53618;SDS011;68717;53.040;18.488;2024-02-23T00:13:58;19.65;;;10.40;;
53618;SDS011;68717;53.040;18.488;2024-02-23T00:14:11;20.48;;;10.60;;
53618;SDS011;68717;53.040;18.488;2024-02-23T00:14:26;19.80;;;10.55;;
53618;SDS011;68717;53.040;18.488;2024-02-23T00:14:39;17.88;;;10.07;;
53618;SDS011;68717;53.040;18.488;2024-02-23T00:14:52;18.52;;;9.95;;
53618;SDS011;68717;53.040;18.488;2024-02-23T00:15:06;18.33;;;9.55;;
53618;SDS011;68717;53.040;18.488;2024-02-23T00:15:19;17.73;;;9.15;;
53618;SDS011;68717;53.040;18.488;2024-02-23T00:15:33;18.70;;;9.30;;
53618;SDS011;68717;53.040;18.488;2024-02-23T00:15:46;20.60;;;9.38;;
53618;SDS011;68717;53.040;18.488;2024-02-23T00:15:59;20.38;;;9.55;;
53618;SDS011;68717;53.040;18.488;2024-02-23T00:16:12;19.63;;;9.77;;
53618;SDS011;68717;53.040;18.488;2024-02-23T00:16:26;18.83;;;9.80;;
53618;SDS011;68717;53.040;18.488;2024-02-23T00:16:42;18.42;;;9.60;;
53618;SDS011;68717;53.040;18.488;2024-02-23T00:16:55;21.05;;;10.45;;
53618;SDS011;68717;53.040;18.488;2024-02-23T00:17:09;21.77;;;10.63;;
53618;SDS011;68717;53.040;18.488;2024-02-23T00:17:24;19.65;;;10.38;;
53618;SDS011;68717;53.040;18.488;2024-02-23T00:17:37;18.63;;;10.30;;
53618;SDS011;68717;53.040;18.488;2024-02-23T00:17:51;19.10;;;10.02;;
53618;SDS011;68717;53.040;18.488;2024-02-23T00:18:05;19.58;;;10.13;;
53618;SDS011;68717;53.040;18.488;2024-02-23T00:18:19;19.27;;;10.00;;
53618;SDS011;68717;53.040;18.488;2024-02-23T00:18:33;18.40;;;10.10;;
53618;SDS011;68717;53.040;18.488;2024-02-23T00:18:46;18.10;;;9.80;;
53618;SDS011;68717;53.040;18.488;2024-02-23T00:18:59;19.15;;;9.50;;
53618;SDS011;68717;53.040;18.488;2024-02-23T00:19:14;19.70;;;10.10;;
53618;SDS011;68717;53.040;18.488;2024-02-23T00:19:30;20.08;;;10.50;;
53618;SDS011;68717;53.040;18.488;2024-02-23T00:19:45;19.55;;;10.75;;
53618;SDS011;68717;53.040;18.488;2024-02-23T00:19:58;20.38;;;11.73;;
53618;SDS011;68717;53.040;18.488;2024-02-23T00:20:12;22.80;;;11.90;;
53618;SDS011;68717;53.040;18.488;2024-02-23T00:20:27;22.05;;;11.35;;
53618;SDS011;68717;53.040;18.488;2024-02-23T00:20:40;20.15;;;11.15;;
53618;SDS011;68717;53.040;18.488;2024-02-23T00:20:53;18.55;;;10.43;;
53618;SDS011;68717;53.040;18.488;2024-02-23T00:21:07;18.40;;;10.18;;
53618;SDS011;68717;53.040;18.488;2024-02-23T00:21:20;18.42;;;10.27;;
53618;SDS011;68717;53.040;18.488;2024-02-23T00:21:33;19.27;;;10.32;;
53618;SDS011;68717;53.040;18.488;2024-02-23T00:21:46;18.50;;;10.23;;
53618;SDS011;68717;53.040;18.488;2024-02-23T00:22:02;17.15;;;10.23;;
53618;SDS011;68717;53.040;18.488;2024-02-23T00:22:20;18.00;;;10.45;;
53618;SDS011;68717;53.040;18.488;2024-02-23T00:22:33;18.60;;;10.50;;
53618;SDS011;68717;53.040;18.488;2024-02-23T00:22:46;20.65;;;11.45;;
53618;SDS011;68717;53.040;18.488;2024-02-23T00:22:59;21.80;;;12.32;;
53618;SDS011;68717;53.040;18.488;2024-02-23T00:23:13;20.40;;;11.98;;
53618;SDS011;68717;53.040;18.488;2024-02-23T00:23:26;19.13;;;10.88;;
53618;SDS011;68717;53.040;18.488;2024-02-23T00:23:41;20.58;;;11.05;;
53618;SDS011;68717;53.040;18.488;2024-02-23T00:23:54;21.02;;;11.40;;
53618;SDS011;68717;53.040;18.488;2024-02-23T00:24:08;21.23;;;11.68;;
53618;SDS011;68717;53.040;18.488;2024-02-23T00:24:21;20.77;;;11.30;;
53618;SDS011;68717;53.040;18.488;2024-02-23T00:24:34;19.63;;;10.45;;
53618;SDS011;68717;53.040;18.488;2024-02-23T00:24:49;19.88;;;10.50;;
53618;SDS011;68717;53.040;18.488;2024-02-23T00:25:02;18.90;;;10.20;;
53618;SDS011;68717;53.040;18.488;2024-02-23T00:25:16;17.67;;;9.93;;
53618;SDS011;68717;53.040;18.488;2024-02-23T00:25:29;19.88;;;10.75;;
53618;SDS011;68717;53.040;18.488;2024-02-23T00:25:42;20.88;;;11.00;;
53618;SDS011;68717;53.040;18.488;2024-02-23T00:25:55;20.45;;;10.98;;
53618;SDS011;68717;53.040;18.488;2024-02-23T00:26:09;20.23;;;10.82;;
53618;SDS011;68717;53.040;18.488;2024-02-23T00:26:23;21.23;;;11.00;;
53618;SDS011;68717;53.040;18.488;2024-02-23T00:26:36;22.55;;;11.13;;
53618;SDS011;68717;53.040;18.488;2024-02-23T00:26:49;21.15;;;10.55;;
53618;SDS011;68717;53.040;18.488;2024-02-23T00:27:04;19.42;;;10.45;;
53618;SDS011;68717;53.040;18.488;2024-02-23T00:27:17;20.80;;;11.15;;
53618;SDS011;68717;53.040;18.488;2024-02-23T00:27:30;20.60;;;11.45;;
53618;SDS011;68717;53.040;18.488;2024-02-23T00:27:43;19.92;;;11.20;;
53618;SDS011;68717;53.040;18.488;2024-02-23T00:27:57;20.23;;;10.98;;
53618;SDS011;68717;53.040;18.488;2024-02-23T00:28:10;20.65;;;11.15;;
53618;SDS011;68717;53.040;18.488;2024-02-23T00:28:24;20.25;;;10.77;;
53618;SDS011;68717;53.040;18.488;2024-02-23T00:28:37;19.52;;;10.43;;
53618;SDS011;68717;53.040;18.488;2024-02-23T00:28:50;18.52;;;10.25;;
53618;SDS011;68717;53.040;18.488;2024-02-23T00:29:03;18.67;;;10.40;;
53618;SDS011;68717;53.040;18.488;2024-02-23T00:29:17;19.50;;;10.60;;
53618;SDS011;68717;53.040;18.488;2024-02-23T00:29:30;20.73;;;11.00;;
53618;SDS011;68717;53.040;18.488;2024-02-23T00:29:43;21.48;;;10.93;;
53618;SDS011;68717;53.040;18.488;2024-02-23T00:29:56;19.13;;;10.57;;
53618;SDS011;68717;53.040;18.488;2024-02-23T00:30:10;17.38;;;10.68;;
53618;SDS011;68717;53.040;18.488;2024-02-23T00:30:23;18.45;;;10.65;;
53618;SDS011;68717;53.040;18.488;2024-02-23T00:30:38;19.20;;;10.38;;
53618;SDS011;68717;53.040;18.488;2024-02-23T00:30:51;17.88;;;10.20;;
53618;SDS011;68717;53.040;18.488;2024-02-23T00:31:05;16.70;;;9.98;;
53618;SDS011;68717;53.040;18.488;2024-02-23T00:31:20;17.02;;;9.88;;
53618;SDS011;68717;53.040;18.488;2024-02-23T00:31:33;17.00;;;9.57;;
53618;SDS011;68717;53.040;18.488;2024-02-23T00:31:47;18.00;;;9.57;;
53618;SDS011;68717;53.040;18.488;2024-02-23T00:32:00;19.05;;;9.70;;
53618;SDS011;68717;53.040;18.488;2024-02-23T00:32:14;17.95;;;9.50;;
53618;SDS011;68717;53.040;18.488;2024-02-23T00:32:28;17.48;;;9.60;;
53618;SDS011;68717;53.040;18.488;2024-02-23T00:32:42;19.02;;;9.90;;
53618;SDS011;68717;53.040;18.488;2024-02-23T00:32:55;18.42;;;9.80;;
53618;SDS011;68717;53.040;18.488;2024-02-23T00:33:08;19.15;;;9.80;;
53618;SDS011;68717;53.040;18.488;2024-02-23T00:33:22;17.58;;;9.80;;
53618;SDS011;68717;53.040;18.488;2024-02-23T00:33:35;17.42;;;9.74;;
53618;SDS011;68717;53.040;18.488;2024-02-23T00:33:50;19.75;;;10.02;;
53618;SDS011;68717;53.040;18.488;2024-02-23T00:34:03;20.67;;;10.60;;
53618;SDS011;68717;53.040;18.488;2024-02-23T00:34:17;21.45;;;11.80;;
53618;SDS011;68717;53.040;18.488;2024-02-23T00:34:31;21.98;;;12.18;;
53618;SDS011;68717;53.040;18.488;2024-02-23T00:34:45;22.52;;;11.65;;
53618;SDS011;68717;53.040;18.488;2024-02-23T00:34:58;21.80;;;11.40;;
53618;SDS011;68717;53.040;18.488;2024-02-23T00:35:12;21.48;;;11.10;;
53618;SDS011;68717;53.040;18.488;2024-02-23T00:35:25;23.90;;;11.82;;
53618;SDS011;68717;53.040;18.488;2024-02-23T00:35:39;24.58;;;12.70;;
53618;SDS011;68717;53.040;18.488;2024-02-23T00:35:52;23.65;;;12.90;;
53618;SDS011;68717;53.040;18.488;2024-02-23T00:36:05;24.05;;;12.77;;
53618;SDS011;68717;53.040;18.488;2024-02-23T00:36:19;24.65;;;12.60;;
53618;SDS011;68717;53.040;18.488;2024-02-23T00:36:32;24.20;;;12.52;;
53618;SDS011;68717;53.040;18.488;2024-02-23T00:36:46;23.25;;;12.45;;
53618;SDS011;68717;53.040;18.488;2024-02-23T00:36:59;23.77;;;13.20;;
53618;SDS011;68717;53.040;18.488;2024-02-23T00:37:12;23.77;;;12.88;;
53618;SDS011;68717;53.040;18.488;2024-02-23T00:37:25;22.52;;;12.15;;
53618;SDS011;68717;53.040;18.488;2024-02-23T00:37:39;22.27;;;12.15;;
53618;SDS011;68717;53.040;18.488;2024-02-23T00:37:52;20.95;;;11.70;;
53618;SDS011;68717;53.040;18.488;2024-02-23T00:38:06;19.60;;;10.68;;
53618;SDS011;68717;53.040;18.488;2024-02-23T00:38:20;20.00;;;10.40;;
53618;SDS011;68717;53.040;18.488;2024-02-23T00:38:33;19.10;;;10.13;;
53618;SDS011;68717;53.040;18.488;2024-02-23T00:38:47;18.20;;;10.10;;
53618;SDS011;68717;53.040;18.488;2024-02-23T00:39:00;18.73;;;10.23;;
53618;SDS011;68717;53.040;18.488;2024-02-23T00:39:13;18.83;;;10.43;;
53618;SDS011;68717;53.040;18.488;2024-02-23T00:39:28;20.22;;;11.02;;
53618;SDS011;68717;53.040;18.488;2024-02-23T00:39:41;22.23;;;11.25;;
53618;SDS011;68717;53.040;18.488;2024-02-23T00:39:54;22.27;;;11.35;;
53618;SDS011;68717;53.040;18.488;2024-02-23T00:40:10;21.45;;;11.02;;
53618;SDS011;68717;53.040;18.488;2024-02-23T00:40:24;20.30;;;10.40;;
53618;SDS011;68717;53.040;18.488;2024-02-23T00:40:37;20.08;;;10.23;;
53618;SDS011;68717;53.040;18.488;2024-02-23T00:40:51;21.25;;;10.82;;
53618;SDS011;68717;53.040;18.488;2024-02-23T00:41:04;22.33;;;12.25;;
53618;SDS011;68717;53.040;18.488;2024-02-23T00:41:17;22.13;;;12.48;;
53618;SDS011;68717;53.040;18.488;2024-02-23T00:41:31;21.30;;;11.18;;
53618;SDS011;68717;53.040;18.488;2024-02-23T00:41:44;20.95;;;10.32;;
53618;SDS011;68717;53.040;18.488;2024-02-23T00:41:57;20.52;;;10.20;;
53618;SDS011;68717;53.040;18.488;2024-02-23T00:42:11;19.23;;;9.63;;
53618;SDS011;68717;53.040;18.488;2024-02-23T00:42:25;18.17;;;9.60;;
53618;SDS011;68717;53.040;18.488;2024-02-23T00:42:38;18.40;;;10.00;;
53618;SDS011;68717;53.040;18.488;2024-02-23T00:42:51;19.20;;;9.90;;
53618;SDS011;68717;53.040;18.488;2024-02-23T00:43:04;20.55;;;10.20;;
53618;SDS011;68717;53.040;18.488;2024-02-23T00:43:19;20.55;;;9.95;;
53618;SDS011;68717;53.040;18.488;2024-02-23T00:43:37;20.80;;;10.07;;
53618;SDS011;68717;53.040;18.488;2024-02-23T00:43:50;20.40;;;10.60;;
53618;SDS011;68717;53.040;18.488;2024-02-23T00:44:04;18.50;;;10.60;;
53618;SDS011;68717;53.040;18.488;2024-02-23T00:44:18;20.70;;;10.93;;
53618;SDS011;68717;53.040;18.488;2024-02-23T00:44:31;21.38;;;10.52;;
53618;SDS011;68717;53.040;18.488;2024-02-23T00:44:45;19.02;;;9.65;;
53618;SDS011;68717;53.040;18.488;2024-02-23T00:44:59;17.42;;;8.85;;
53618;SDS011;68717;53.040;18.488;2024-02-23T00:45:15;18.10;;;9.15;;
53618;SDS011;68717;53.040;18.488;2024-02-23T00:45:28;19.45;;;9.90;;
53618;SDS011;68717;53.040;18.488;2024-02-23T00:45:41;20.67;;;10.40;;
53618;SDS011;68717;53.040;18.488;2024-02-23T00:45:54;20.77;;;10.90;;
53618;SDS011;68717;53.040;18.488;2024-02-23T00:46:09;21.02;;;11.27;;
53618;SDS011;68717;53.040;18.488;2024-02-23T00:46:22;19.98;;;10.77;;
53618;SDS011;68717;53.040;18.488;2024-02-23T00:46:35;18.80;;;10.30;;
53618;SDS011;68717;53.040;18.488;2024-02-23T00:46:48;17.45;;;9.95;;
53618;SDS011;68717;53.040;18.488;2024-02-23T00:47:01;18.65;;;10.30;;
53618;SDS011;68717;53.040;18.488;2024-02-23T00:47:16;20.55;;;10.55;;
53618;SDS011;68717;53.040;18.488;2024-02-23T00:47:30;22.33;;;10.77;;
53618;SDS011;68717;53.040;18.488;2024-02-23T00:47:45;22.92;;;11.30;;
53618;SDS011;68717;53.040;18.488;2024-02-23T00:47:59;23.25;;;11.85;;
53618;SDS011;68717;53.040;18.488;2024-02-23T00:48:12;24.75;;;11.70;;
53618;SDS011;68717;53.040;18.488;2024-02-23T00:48:26;24.30;;;11.45;;
53618;SDS011;68717;53.040;18.488;2024-02-23T00:48:39;21.88;;;11.48;;
53618;SDS011;68717;53.040;18.488;2024-02-23T00:48:52;19.98;;;10.57;;
53618;SDS011;68717;53.040;18.488;2024-02-23T00:49:06;21.05;;;11.23;;
53618;SDS011;68717;53.040;18.488;2024-02-23T00:49:21;23.38;;;11.80;;
53618;SDS011;68717;53.040;18.488;2024-02-23T00:49:35;25.17;;;11.73;;
53618;SDS011;68717;53.040;18.488;2024-02-23T00:49:49;24.65;;;11.48;;
53618;SDS011;68717;53.040;18.488;2024-02-23T00:50:02;27.27;;;12.35;;
53618;SDS011;68717;53.040;18.488;2024-02-23T00:50:18;32.30;;;14.38;;
53618;SDS011;68717;53.040;18.488;2024-02-23T00:50:31;32.30;;;14.60;;
53618;SDS011;68717;53.040;18.488;2024-02-23T00:50:44;27.42;;;13.00;;
53618;SDS011;68717;53.040;18.488;2024-02-23T00:50:57;23.25;;;11.27;;
53618;SDS011;68717;53.040;18.488;2024-02-23T00:51:11;21.63;;;10.63;;
53618;SDS011;68717;53.040;18.488;2024-02-23T00:51:24;19.77;;;9.95;;
53618;SDS011;68717;53.040;18.488;2024-02-23T00:51:37;22.10;;;10.95;;
53618;SDS011;68717;53.040;18.488;2024-02-23T00:51:51;24.08;;;11.90;;
53618;SDS011;68717;53.040;18.488;2024-02-23T00:52:04;25.30;;;11.95;;
53618;SDS011;68717;53.040;18.488;2024-02-23T00:52:18;24.80;;;11.95;;
53618;SDS011;68717;53.040;18.488;2024-02-23T00:52:31;21.80;;;11.15;;
53618;SDS011;68717;53.040;18.488;2024-02-23T00:52:44;20.20;;;10.93;;
53618;SDS011;68717;53.040;18.488;2024-02-23T00:52:57;21.48;;;11.88;;
53618;SDS011;68717;53.040;18.488;2024-02-23T00:53:11;22.50;;;12.45;;
53618;SDS011;68717;53.040;18.488;2024-02-23T00:53:24;21.42;;;11.77;;
53618;SDS011;68717;53.040;18.488;2024-02-23T00:53:37;20.30;;;11.10;;
53618;SDS011;68717;53.040;18.488;2024-02-23T00:53:52;17.75;;;9.93;;
53618;SDS011;68717;53.040;18.488;2024-02-23T00:54:05;16.95;;;9.70;;
53618;SDS011;68717;53.040;18.488;2024-02-23T00:54:20;17.98;;;9.73;;
53618;SDS011;68717;53.040;18.488;2024-02-23T00:54:33;18.90;;;9.93;;
53618;SDS011;68717;53.040;18.488;2024-02-23T00:54:46;18.23;;;9.48;;
53618;SDS011;68717;53.040;18.488;2024-02-23T00:55:00;19.08;;;9.18;;
53618;SDS011;68717;53.040;18.488;2024-02-23T00:55:13;18.83;;;9.50;;
53618;SDS011;68717;53.040;18.488;2024-02-23T00:55:26;18.30;;;9.95;;
53618;SDS011;68717;53.040;18.488;2024-02-23T00:55:39;18.08;;;9.82;;
53618;SDS011;68717;53.040;18.488;2024-02-23T00:55:53;18.27;;;9.60;;
53618;SDS011;68717;53.040;18.488;2024-02-23T00:56:07;18.25;;;9.52;;
53618;SDS011;68717;53.040;18.488;2024-02-23T00:56:20;17.77;;;9.30;;
53618;SDS011;68717;53.040;18.488;2024-02-23T00:56:41;16.80;;;9.35;;
53618;SDS011;68717;53.040;18.488;2024-02-23T00:57:03;17.85;;;9.10;;
53618;SDS011;68717;53.040;18.488;2024-02-23T00:57:16;20.23;;;9.05;;
53618;SDS011;68717;53.040;18.488;2024-02-23T00:57:31;21.48;;;9.65;;
53618;SDS011;68717;53.040;18.488;2024-02-23T00:57:45;18.58;;;9.60;;
53618;SDS011;68717;53.040;18.488;2024-02-23T00:57:59;17.40;;;9.10;;
53618;SDS011;68717;53.040;18.488;2024-02-23T00:58:12;17.63;;;9.55;;
53618;SDS011;68717;53.040;18.488;2024-02-23T00:58:25;18.10;;;9.80;;
53618;SDS011;68717;53.040;18.488;2024-02-23T00:58:38;19.85;;;10.00;;
53618;SDS011;68717;53.040;18.488;2024-02-23T00:58:51;19.05;;;9.85;;
53618;SDS011;68717;53.040;18.488;2024-02-23T00:59:05;17.33;;;9.82;;
53618;SDS011;68717;53.040;18.488;2024-02-23T00:59:19;20.17;;;9.77;;
53618;SDS011;68717;53.040;18.488;2024-02-23T00:59:33;20.48;;;9.88;;
53618;SDS011;68717;53.040;18.488;2024-02-23T00:59:46;18.63;;;9.90;;
53618;SDS011;68717;53.040;18.488;2024-02-23T00:59:59;19.08;;;10.15;;
53618;SDS011;68717;53.040;18.488;2024-02-23T01:00:13;18.73;;;10.30;;
53618;SDS011;68717;53.040;18.488;2024-02-23T01:00:27;18.40;;;9.95;;
53618;SDS011;68717;53.040;18.488;2024-02-23T01:00:40;17.45;;;9.50;;
53618;SDS011;68717;53.040;18.488;2024-02-23T01:00:54;18.05;;;9.95;;
53618;SDS011;68717;53.040;18.488;2024-02-23T01:01:08;19.55;;;10.30;;
53618;SDS011;68717;53.040;18.488;2024-02-23T01:01:22;19.05;;;10.20;;
53618;SDS011;68717;53.040;18.488;2024-02-23T01:01:36;20.38;;;10.45;;
53618;SDS011;68717;53.040;18.488;2024-02-23T01:01:49;20.90;;;10.43;;
53618;SDS011;68717;53.040;18.488;2024-02-23T01:02:02;20.85;;;10.60;;
53618;SDS011;68717;53.040;18.488;2024-02-23T01:02:15;20.75;;;11.07;;
53618;SDS011;68717;53.040;18.488;2024-02-23T01:02:28;20.77;;;11.35;;
53618;SDS011;68717;53.040;18.488;2024-02-23T01:02:42;20.65;;;11.45;;
53618;SDS011;68717;53.040;18.488;2024-02-23T01:02:55;20.98;;;11.32;;
53618;SDS011;68717;53.040;18.488;2024-02-23T01:03:08;20.55;;;11.02;;
53618;SDS011;68717;53.040;18.488;2024-02-23T01:03:21;21.38;;;11.60;;
53618;SDS011;68717;53.040;18.488;2024-02-23T01:03:36;21.60;;;11.88;;
53618;SDS011;68717;53.040;18.488;2024-02-23T01:03:49;21.02;;;11.35;;
53618;SDS011;68717;53.040;18.488;2024-02-23T01:04:02;19.75;;;10.90;;
53618;SDS011;68717;53.040;18.488;2024-02-23T01:04:16;18.92;;;10.40;;
53618;SDS011;68717;53.040;18.488;2024-02-23T01:04:30;18.65;;;10.10;;
53618;SDS011;68717;53.040;18.488;2024-02-23T01:04:44;20.23;;;10.63;;
53618;SDS011;68717;53.040;18.488;2024-02-23T01:04:57;20.15;;;10.30;;
53618;SDS011;68717;53.040;18.488;2024-02-23T01:05:11;19.27;;;9.63;;
53618;SDS011;68717;53.040;18.488;2024-02-23T01:05:25;19.48;;;9.80;;
53618;SDS011;68717;53.040;18.488;2024-02-23T01:05:38;18.50;;;9.85;;
53618;SDS011;68717;53.040;18.488;2024-02-23T01:05:55;18.65;;;9.80;;
53618;SDS011;68717;53.040;18.488;2024-02-23T01:06:08;19.50;;;9.95;;
53618;SDS011;68717;53.040;18.488;2024-02-23T01:06:21;18.92;;;10.02;;
53618;SDS011;68717;53.040;18.488;2024-02-23T01:06:35;17.83;;;10.10;;
53618;SDS011;68717;53.040;18.488;2024-02-23T01:06:48;17.60;;;9.95;;
53618;SDS011;68717;53.040;18.488;2024-02-23T01:07:01;18.25;;;9.80;;
53618;SDS011;68717;53.040;18.488;2024-02-23T01:07:17;20.33;;;10.00;;
53618;SDS011;68717;53.040;18.488;2024-02-23T01:07:30;19.67;;;10.00;;
53618;SDS011;68717;53.040;18.488;2024-02-23T01:07:45;18.02;;;9.95;;
53618;SDS011;68717;53.040;18.488;2024-02-23T01:08:00;17.58;;;9.48;;
53618;SDS011;68717;53.040;18.488;2024-02-23T01:08:13;17.23;;;9.00;;
53618;SDS011;68717;53.040;18.488;2024-02-23T01:08:29;17.63;;;9.10;;
53618;SDS011;68717;53.040;18.488;2024-02-23T01:08:42;17.58;;;9.10;;
53618;SDS011;68717;53.040;18.488;2024-02-23T01:08:55;17.73;;;9.00;;
53618;SDS011;68717;53.040;18.488;2024-02-23T01:09:08;18.55;;;9.07;;
53618;SDS011;68717;53.040;18.488;2024-02-23T01:09:22;18.92;;;9.30;;
53618;SDS011;68717;53.040;18.488;2024-02-23T01:09:36;18.75;;;9.30;;
53618;SDS011;68717;53.040;18.488;2024-02-23T01:09:49;18.73;;;9.43;;
53618;SDS011;68717;53.040;18.488;2024-02-23T01:10:03;18.23;;;9.35;;
53618;SDS011;68717;53.040;18.488;2024-02-23T01:10:17;17.13;;;9.30;;
53618;SDS011;68717;53.040;18.488;2024-02-23T01:10:30;17.52;;;8.98;;
53618;SDS011;68717;53.040;18.488;2024-02-23T01:10:43;19.00;;;8.70;;
53618;SDS011;68717;53.040;18.488;2024-02-23T01:10:56;19.10;;;9.30;;
53618;SDS011;68717;53.040;18.488;2024-02-23T01:11:10;19.08;;;9.50;;
53618;SDS011;68717;53.040;18.488;2024-02-23T01:11:23;18.67;;;9.25;;
53618;SDS011;68717;53.040;18.488;2024-02-23T01:11:36;18.15;;;9.10;;
53618;SDS011;68717;53.040;18.488;2024-02-23T01:11:51;17.55;;;8.98;;
53618;SDS011;68717;53.040;18.488;2024-02-23T01:12:04;16.85;;;8.77;;
53618;SDS011;68717;53.040;18.488;2024-02-23T01:12:18;16.75;;;9.18;;
53618;SDS011;68717;53.040;18.488;2024-02-23T01:12:31;17.45;;;9.55;;
53618;SDS011;68717;53.040;18.488;2024-02-23T01:12:45;17.75;;;9.40;;
53618;SDS011;68717;53.040;18.488;2024-02-23T01:12:58;18.52;;;9.40;;
53618;SDS011;68717;53.040;18.488;2024-02-23T01:13:11;19.27;;;9.63;;
53618;SDS011;68717;53.040;18.488;2024-02-23T01:13:24;17.95;;;9.50;;
53618;SDS011;68717;53.040;18.488;2024-02-23T01:13:37;17.50;;;9.13;;
53618;SDS011;68717;53.040;18.488;2024-02-23T01:13:52;17.50;;;9.25;;
53618;SDS011;68717;53.040;18.488;2024-02-23T01:14:05;17.45;;;9.50;;
53618;SDS011;68717;53.040;18.488;2024-02-23T01:14:19;16.95;;;9.48;;
53618;SDS011;68717;53.040;18.488;2024-02-23T01:14:32;15.68;;;8.82;;
53618;SDS011;68717;53.040;18.488;2024-02-23T01:14:46;16.30;;;8.95;;
53618;SDS011;68717;53.040;18.488;2024-02-23T01:15:01;16.25;;;8.75;;
53618;SDS011;68717;53.040;18.488;2024-02-23T01:15:17;16.52;;;8.68;;
53618;SDS011;68717;53.040;18.488;2024-02-23T01:15:30;16.50;;;8.98;;
53618;SDS011;68717;53.040;18.488;2024-02-23T01:15:44;16.00;;;8.77;;
53618;SDS011;68717;53.040;18.488;2024-02-23T01:15:57;17.10;;;9.05;;
53618;SDS011;68717;53.040;18.488;2024-02-23T01:16:11;17.50;;;9.00;;
53618;SDS011;68717;53.040;18.488;2024-02-23T01:16:24;16.52;;;8.70;;
53618;SDS011;68717;53.040;18.488;2024-02-23T01:16:37;15.13;;;8.82;;
53618;SDS011;68717;53.040;18.488;2024-02-23T01:16:50;14.90;;;8.93;;
53618;SDS011;68717;53.040;18.488;2024-02-23T01:17:03;14.48;;;8.68;;
53618;SDS011;68717;53.040;18.488;2024-02-23T01:17:17;15.35;;;8.52;;
53618;SDS011;68717;53.040;18.488;2024-02-23T01:17:30;15.98;;;8.52;;
53618;SDS011;68717;53.040;18.488;2024-02-23T01:17:45;16.83;;;8.57;;
53618;SDS011;68717;53.040;18.488;2024-02-23T01:17:58;16.80;;;8.98;;
53618;SDS011;68717;53.040;18.488;2024-02-23T01:18:11;16.40;;;9.30;;
53618;SDS011;68717;53.040;18.488;2024-02-23T01:18:25;15.27;;;8.65;;
53618;SDS011;68717;53.040;18.488;2024-02-23T01:18:38;15.13;;;8.70;;
53618;SDS011;68717;53.040;18.488;2024-02-23T01:18:51;16.60;;;8.80;;
53618;SDS011;68717;53.040;18.488;2024-02-23T01:19:05;17.48;;;8.80;;
53618;SDS011;68717;53.040;18.488;2024-02-23T01:19:18;16.48;;;8.85;;
53618;SDS011;68717;53.040;18.488;2024-02-23T01:19:33;15.98;;;8.90;;
53618;SDS011;68717;53.040;18.488;2024-02-23T01:19:47;16.95;;;9.23;;
53618;SDS011;68717;53.040;18.488;2024-02-23T01:20:00;16.60;;;9.13;;